sensor_id;sensor_type;location;lat;lon;timestamp;pressure;altitude;pressure_sealevel;temperature;humidity
50292;BME280;36190;54.980;73.388;2023-07-29T00:01:03;98792.16;;;21.92;69.20
50292;BME280;36190;54.980;73.388;2023-07-29T00:03:30;98785.94;;;21.92;69.11
50292;BME280;36190;54.980;73.388;2023-07-29T00:05:58;98790.25;;;21.93;69.20
50292;BME280;36190;54.980;73.388;2023-07-29T00:08:25;98795.13;;;21.96;68.95
50292;BME280;36190;54.980;73.388;2023-07-29T00:10:53;98798.66;;;21.96;69.21
50292;BME280;36190;54.980;73.388;2023-07-29T00:13:20;98788.31;;;21.98;69.07
50292;BME280;36190;54.980;73.388;2023-07-29T00:15:48;98791.03;;;21.98;68.96
50292;BME280;36190;54.980;73.388;2023-07-29T00:18:17;98791.56;;;22.01;69.05
50292;BME280;36190;54.980;73.388;2023-07-29T00:20:44;98790.69;;;22.05;69.05
50292;BME280;36190;54.980;73.388;2023-07-29T00:23:12;98799.34;;;22.12;69.01
50292;BME280;36190;54.980;73.388;2023-07-29T00:25:40;98802.53;;;22.20;68.80
50292;BME280;36190;54.980;73.388;2023-07-29T00:28:07;98796.75;;;22.26;68.75
50292;BME280;36190;54.980;73.388;2023-07-29T00:30:35;98796.44;;;22.33;68.58
50292;BME280;36190;54.980;73.388;2023-07-29T00:33:02;98792.88;;;22.38;68.42
50292;BME280;36190;54.980;73.388;2023-07-29T00:35:31;98796.09;;;22.40;68.40
50292;BME280;36190;54.980;73.388;2023-07-29T00:37:59;98799.88;;;22.44;67.96
50292;BME280;36190;54.980;73.388;2023-07-29T00:40:28;98789.53;;;22.46;67.81
50292;BME280;36190;54.980;73.388;2023-07-29T00:42:56;98791.06;;;22.58;67.56
50292;BME280;36190;54.980;73.388;2023-07-29T00:45:25;98792.13;;;22.62;67.06
50292;BME280;36190;54.980;73.388;2023-07-29T00:47:53;98787.97;;;22.70;67.09
50292;BME280;36190;54.980;73.388;2023-07-29T00:50:21;98796.31;;;22.78;66.50
50292;BME280;36190;54.980;73.388;2023-07-29T00:52:50;98793.50;;;22.84;66.24
50292;BME280;36190;54.980;73.388;2023-07-29T00:55:18;98793.47;;;22.89;66.03
50292;BME280;36190;54.980;73.388;2023-07-29T00:57:46;98792.59;;;22.93;65.86
50292;BME280;36190;54.980;73.388;2023-07-29T01:00:15;98796.66;;;22.96;65.77
50292;BME280;36190;54.980;73.388;2023-07-29T01:02:43;98795.50;;;23.02;65.62
50292;BME280;36190;54.980;73.388;2023-07-29T01:05:12;98787.91;;;22.99;65.27
50292;BME280;36190;54.980;73.388;2023-07-29T01:07:46;98791.06;;;23.06;65.06
50292;BME280;36190;54.980;73.388;2023-07-29T01:10:22;98778.06;;;23.03;64.61
50292;BME280;36190;54.980;73.388;2023-07-29T01:12:58;98791.53;;;23.14;64.56
50292;BME280;36190;54.980;73.388;2023-07-29T01:15:33;98790.16;;;23.16;64.71
50292;BME280;36190;54.980;73.388;2023-07-29T01:18:05;98783.88;;;23.16;64.42
50292;BME280;36190;54.980;73.388;2023-07-29T01:20:39;98782.22;;;23.20;64.32
50292;BME280;36190;54.980;73.388;2023-07-29T01:23:07;98777.50;;;23.26;64.26
50292;BME280;36190;54.980;73.388;2023-07-29T01:25:36;98788.66;;;23.29;64.31
50292;BME280;36190;54.980;73.388;2023-07-29T01:28:04;98802.19;;;23.34;63.86
50292;BME280;36190;54.980;73.388;2023-07-29T01:30:36;98797.63;;;23.30;63.70
50292;BME280;36190;54.980;73.388;2023-07-29T01:33:10;98787.56;;;23.25;63.97
50292;BME280;36190;54.980;73.388;2023-07-29T01:35:43;98788.75;;;23.19;63.95
50292;BME280;36190;54.980;73.388;2023-07-29T01:38:16;98793.59;;;23.22;64.35
50292;BME280;36190;54.980;73.388;2023-07-29T01:40:48;98780.19;;;23.31;64.42
50292;BME280;36190;54.980;73.388;2023-07-29T01:43:16;98785.22;;;23.43;63.99
50292;BME280;36190;54.980;73.388;2023-07-29T01:45:49;98788.34;;;23.50;64.32
50292;BME280;36190;54.980;73.388;2023-07-29T01:48:16;98798.66;;;23.53;64.32
50292;BME280;36190;54.980;73.388;2023-07-29T01:50:44;98785.00;;;23.58;64.59
50292;BME280;36190;54.980;73.388;2023-07-29T01:53:11;98781.38;;;23.63;64.56
50292;BME280;36190;54.980;73.388;2023-07-29T01:55:39;98776.16;;;23.67;64.33
50292;BME280;36190;54.980;73.388;2023-07-29T01:58:08;98784.84;;;23.69;64.33
50292;BME280;36190;54.980;73.388;2023-07-29T02:00:35;98782.03;;;23.74;64.70
50292;BME280;36190;54.980;73.388;2023-07-29T02:03:03;98787.47;;;23.74;64.47
50292;BME280;36190;54.980;73.388;2023-07-29T02:05:30;98782.41;;;23.67;64.36
50292;BME280;36190;54.980;73.388;2023-07-29T02:07:58;98791.47;;;23.62;64.37
50292;BME280;36190;54.980;73.388;2023-07-29T02:10:25;98790.34;;;23.63;64.49
50292;BME280;36190;54.980;73.388;2023-07-29T02:12:53;98789.19;;;23.70;64.47
50292;BME280;36190;54.980;73.388;2023-07-29T02:15:22;98788.28;;;23.74;64.59
50292;BME280;36190;54.980;73.388;2023-07-29T02:17:50;98789.00;;;23.80;64.50
50292;BME280;36190;54.980;73.388;2023-07-29T02:20:18;98786.50;;;23.84;64.27
50292;BME280;36190;54.980;73.388;2023-07-29T02:22:45;98794.75;;;23.79;64.66
50292;BME280;36190;54.980;73.388;2023-07-29T02:25:14;98792.91;;;23.74;65.03
50292;BME280;36190;54.980;73.388;2023-07-29T02:27:41;98789.97;;;23.70;65.41
50292;BME280;36190;54.980;73.388;2023-07-29T02:30:10;98790.50;;;23.72;65.98
50292;BME280;36190;54.980;73.388;2023-07-29T02:32:39;98790.13;;;23.79;66.08
50292;BME280;36190;54.980;73.388;2023-07-29T02:35:07;98784.00;;;23.87;65.99
50292;BME280;36190;54.980;73.388;2023-07-29T02:37:36;98779.50;;;23.97;66.06
50292;BME280;36190;54.980;73.388;2023-07-29T02:40:04;98793.84;;;24.02;66.50
50292;BME280;36190;54.980;73.388;2023-07-29T02:42:31;98778.56;;;24.07;66.56
50292;BME280;36190;54.980;73.388;2023-07-29T02:44:59;98789.66;;;24.10;66.87
50292;BME280;36190;54.980;73.388;2023-07-29T02:47:26;98789.06;;;24.13;67.30
50292;BME280;36190;54.980;73.388;2023-07-29T02:49:55;98780.81;;;24.19;67.34
50292;BME280;36190;54.980;73.388;2023-07-29T02:52:23;98782.84;;;24.27;67.08
50292;BME280;36190;54.980;73.388;2023-07-29T02:54:50;98789.31;;;24.31;67.45
50292;BME280;36190;54.980;73.388;2023-07-29T02:57:17;98786.69;;;24.26;67.97
50292;BME280;36190;54.980;73.388;2023-07-29T02:59:45;98788.09;;;24.23;68.83
50292;BME280;36190;54.980;73.388;2023-07-29T03:02:13;98792.22;;;24.21;69.27
50292;BME280;36190;54.980;73.388;2023-07-29T03:04:42;98795.44;;;24.23;69.60
50292;BME280;36190;54.980;73.388;2023-07-29T03:07:10;98789.50;;;24.21;70.15
50292;BME280;36190;54.980;73.388;2023-07-29T03:09:39;98802.00;;;24.22;70.24
50292;BME280;36190;54.980;73.388;2023-07-29T03:12:08;98803.63;;;24.23;71.08
50292;BME280;36190;54.980;73.388;2023-07-29T03:14:35;98805.44;;;24.27;71.23
50292;BME280;36190;54.980;73.388;2023-07-29T03:17:03;98791.34;;;24.39;70.94
50292;BME280;36190;54.980;73.388;2023-07-29T03:19:31;98808.72;;;24.43;71.60
50292;BME280;36190;54.980;73.388;2023-07-29T03:21:58;98796.78;;;24.39;71.75
50292;BME280;36190;54.980;73.388;2023-07-29T03:24:27;98809.91;;;24.37;71.99
50292;BME280;36190;54.980;73.388;2023-07-29T03:26:55;98816.56;;;24.31;72.43
50292;BME280;36190;54.980;73.388;2023-07-29T03:29:22;98809.38;;;24.21;72.97
50292;BME280;36190;54.980;73.388;2023-07-29T03:31:50;98830.34;;;24.21;73.33
50292;BME280;36190;54.980;73.388;2023-07-29T03:34:17;98825.94;;;24.25;73.00
50292;BME280;36190;54.980;73.388;2023-07-29T03:36:45;98825.84;;;24.30;72.86
50292;BME280;36190;54.980;73.388;2023-07-29T03:39:13;98829.28;;;24.36;72.86
50292;BME280;36190;54.980;73.388;2023-07-29T03:41:42;98830.59;;;24.38;73.14
50292;BME280;36190;54.980;73.388;2023-07-29T03:44:10;98818.22;;;24.46;72.72
50292;BME280;36190;54.980;73.388;2023-07-29T03:46:37;98827.03;;;24.57;72.81
50292;BME280;36190;54.980;73.388;2023-07-29T03:49:05;98828.03;;;24.61;72.50
50292;BME280;36190;54.980;73.388;2023-07-29T03:51:32;98817.13;;;24.61;72.01
50292;BME280;36190;54.980;73.388;2023-07-29T03:54:00;98823.28;;;24.67;71.78
50292;BME280;36190;54.980;73.388;2023-07-29T03:56:28;98816.34;;;24.75;72.09
50292;BME280;36190;54.980;73.388;2023-07-29T03:59:04;98838.09;;;24.80;71.71
50292;BME280;36190;54.980;73.388;2023-07-29T04:01:32;98831.78;;;24.65;71.68
50292;BME280;36190;54.980;73.388;2023-07-29T04:04:00;98822.97;;;24.54;71.71
50292;BME280;36190;54.980;73.388;2023-07-29T04:06:27;98840.81;;;24.47;72.11
50292;BME280;36190;54.980;73.388;2023-07-29T04:08:55;98843.66;;;24.41;72.13
50292;BME280;36190;54.980;73.388;2023-07-29T04:11:24;98835.75;;;24.40;71.86
50292;BME280;36190;54.980;73.388;2023-07-29T04:13:51;98825.25;;;24.33;71.92
50292;BME280;36190;54.980;73.388;2023-07-29T04:16:20;98825.25;;;24.33;71.98
50292;BME280;36190;54.980;73.388;2023-07-29T04:18:49;98833.34;;;24.38;71.98
50292;BME280;36190;54.980;73.388;2023-07-29T04:21:17;98827.88;;;24.38;71.96
50292;BME280;36190;54.980;73.388;2023-07-29T04:23:45;98824.56;;;24.41;71.95
50292;BME280;36190;54.980;73.388;2023-07-29T04:26:13;98835.00;;;24.53;71.89
50292;BME280;36190;54.980;73.388;2023-07-29T04:28:41;98822.88;;;24.59;71.89
50292;BME280;36190;54.980;73.388;2023-07-29T04:31:09;98819.25;;;24.64;71.98
50292;BME280;36190;54.980;73.388;2023-07-29T04:33:38;98831.38;;;24.72;71.58
50292;BME280;36190;54.980;73.388;2023-07-29T04:36:05;98828.78;;;24.81;71.08
50292;BME280;36190;54.980;73.388;2023-07-29T04:38:33;98822.34;;;24.91;70.85
50292;BME280;36190;54.980;73.388;2023-07-29T04:41:01;98824.97;;;25.10;70.55
50292;BME280;36190;54.980;73.388;2023-07-29T04:43:29;98830.72;;;25.22;69.91
50292;BME280;36190;54.980;73.388;2023-07-29T04:45:57;98819.09;;;25.31;69.03
50292;BME280;36190;54.980;73.388;2023-07-29T04:48:25;98830.50;;;25.33;68.83
50292;BME280;36190;54.980;73.388;2023-07-29T04:50:54;98834.03;;;25.19;68.81
50292;BME280;36190;54.980;73.388;2023-07-29T04:53:21;98850.22;;;25.02;69.58
50292;BME280;36190;54.980;73.388;2023-07-29T04:55:49;98846.88;;;25.05;69.22
50292;BME280;36190;54.980;73.388;2023-07-29T04:58:16;98827.56;;;25.01;68.88
50292;BME280;36190;54.980;73.388;2023-07-29T05:00:45;98837.91;;;25.18;68.70
50292;BME280;36190;54.980;73.388;2023-07-29T05:03:13;98832.00;;;25.25;68.29
50292;BME280;36190;54.980;73.388;2023-07-29T05:05:40;98838.09;;;25.22;68.16
50292;BME280;36190;54.980;73.388;2023-07-29T05:08:09;98839.28;;;25.30;68.23
50292;BME280;36190;54.980;73.388;2023-07-29T05:10:37;98842.13;;;25.38;68.22
50292;BME280;36190;54.980;73.388;2023-07-29T05:13:04;98841.69;;;25.45;67.64
50292;BME280;36190;54.980;73.388;2023-07-29T05:15:32;98843.50;;;25.50;67.10
50292;BME280;36190;54.980;73.388;2023-07-29T05:17:59;98850.81;;;25.40;66.97
50292;BME280;36190;54.980;73.388;2023-07-29T05:20:27;98855.38;;;25.17;67.12
50292;BME280;36190;54.980;73.388;2023-07-29T05:22:54;98850.72;;;24.90;67.71
50292;BME280;36190;54.980;73.388;2023-07-29T05:25:23;98856.59;;;24.83;68.43
50292;BME280;36190;54.980;73.388;2023-07-29T05:27:51;98856.06;;;24.81;67.91
50292;BME280;36190;54.980;73.388;2023-07-29T05:30:18;98858.88;;;24.76;68.00
50292;BME280;36190;54.980;73.388;2023-07-29T05:32:46;98853.50;;;24.70;68.43
50292;BME280;36190;54.980;73.388;2023-07-29T05:35:13;98867.25;;;24.65;68.61
50292;BME280;36190;54.980;73.388;2023-07-29T05:37:41;98878.09;;;24.51;68.99
50292;BME280;36190;54.980;73.388;2023-07-29T05:40:09;98875.44;;;24.32;69.28
50292;BME280;36190;54.980;73.388;2023-07-29T05:42:38;98867.25;;;24.32;69.50
50292;BME280;36190;54.980;73.388;2023-07-29T05:45:07;98867.28;;;24.46;69.15
50292;BME280;36190;54.980;73.388;2023-07-29T05:47:35;98874.66;;;24.79;68.49
50292;BME280;36190;54.980;73.388;2023-07-29T05:50:03;98877.72;;;25.05;67.78
50292;BME280;36190;54.980;73.388;2023-07-29T05:52:31;98880.34;;;25.10;67.35
50292;BME280;36190;54.980;73.388;2023-07-29T05:54:59;98881.06;;;25.16;67.41
50292;BME280;36190;54.980;73.388;2023-07-29T05:57:27;98891.84;;;25.21;67.22
50292;BME280;36190;54.980;73.388;2023-07-29T05:59:56;98879.84;;;25.22;66.84
50292;BME280;36190;54.980;73.388;2023-07-29T06:02:24;98883.16;;;25.33;66.96
50292;BME280;36190;54.980;73.388;2023-07-29T06:04:52;98902.38;;;25.42;66.40
50292;BME280;36190;54.980;73.388;2023-07-29T06:07:19;98895.19;;;25.32;66.48
50292;BME280;36190;54.980;73.388;2023-07-29T06:09:47;98895.41;;;25.22;66.94
50292;BME280;36190;54.980;73.388;2023-07-29T06:12:14;98905.50;;;25.21;66.48
50292;BME280;36190;54.980;73.388;2023-07-29T06:14:42;98900.75;;;25.13;66.55
50292;BME280;36190;54.980;73.388;2023-07-29T06:17:11;98909.34;;;25.06;66.77
50292;BME280;36190;54.980;73.388;2023-07-29T06:19:38;98910.25;;;25.02;67.26
50292;BME280;36190;54.980;73.388;2023-07-29T06:22:06;98911.16;;;25.11;66.58
50292;BME280;36190;54.980;73.388;2023-07-29T06:24:33;98910.56;;;25.14;66.27
50292;BME280;36190;54.980;73.388;2023-07-29T06:27:01;98912.47;;;25.13;66.50
50292;BME280;36190;54.980;73.388;2023-07-29T06:29:28;98927.03;;;25.09;65.93
50292;BME280;36190;54.980;73.388;2023-07-29T06:31:56;98929.34;;;25.02;66.11
50292;BME280;36190;54.980;73.388;2023-07-29T06:34:25;98922.88;;;24.97;65.99
50292;BME280;36190;54.980;73.388;2023-07-29T06:36:52;98918.63;;;25.05;65.69
50292;BME280;36190;54.980;73.388;2023-07-29T06:39:20;98919.56;;;25.29;65.21
50292;BME280;36190;54.980;73.388;2023-07-29T06:41:47;98915.81;;;25.66;64.17
50292;BME280;36190;54.980;73.388;2023-07-29T06:44:15;98917.00;;;25.88;63.05
50292;BME280;36190;54.980;73.388;2023-07-29T06:46:43;98934.09;;;25.94;63.38
50292;BME280;36190;54.980;73.388;2023-07-29T06:49:10;98923.31;;;26.12;62.64
50292;BME280;36190;54.980;73.388;2023-07-29T06:51:39;98932.63;;;26.11;62.83
50292;BME280;36190;54.980;73.388;2023-07-29T06:54:07;98928.03;;;25.97;63.07
50292;BME280;36190;54.980;73.388;2023-07-29T06:56:34;98941.78;;;25.92;63.01
50292;BME280;36190;54.980;73.388;2023-07-29T06:59:02;98942.09;;;25.90;62.87
50292;BME280;36190;54.980;73.388;2023-07-29T07:01:30;98945.41;;;26.01;62.42
50292;BME280;36190;54.980;73.388;2023-07-29T07:03:57;98946.81;;;25.99;62.27
50292;BME280;36190;54.980;73.388;2023-07-29T07:06:25;98956.25;;;25.78;62.77
50292;BME280;36190;54.980;73.388;2023-07-29T07:08:54;98945.34;;;25.50;63.14
50292;BME280;36190;54.980;73.388;2023-07-29T07:11:21;98961.59;;;25.27;64.07
50292;BME280;36190;54.980;73.388;2023-07-29T07:13:49;98949.84;;;25.13;64.38
50292;BME280;36190;54.980;73.388;2023-07-29T07:16:16;98940.59;;;25.14;64.30
50292;BME280;36190;54.980;73.388;2023-07-29T07:18:44;98952.94;;;25.53;63.29
50292;BME280;36190;54.980;73.388;2023-07-29T07:21:12;98943.41;;;25.93;61.89
50292;BME280;36190;54.980;73.388;2023-07-29T07:23:39;98943.94;;;26.18;61.09
50292;BME280;36190;54.980;73.388;2023-07-29T07:26:09;98939.34;;;26.04;61.83
50292;BME280;36190;54.980;73.388;2023-07-29T07:28:36;98946.03;;;25.98;62.18
50292;BME280;36190;54.980;73.388;2023-07-29T07:31:03;98966.88;;;26.08;61.78
50292;BME280;36190;54.980;73.388;2023-07-29T07:33:31;98955.22;;;26.02;61.79
50292;BME280;36190;54.980;73.388;2023-07-29T07:35:58;98968.72;;;25.85;62.11
50292;BME280;36190;54.980;73.388;2023-07-29T07:38:26;98956.97;;;25.70;62.83
50292;BME280;36190;54.980;73.388;2023-07-29T07:40:54;98955.78;;;25.76;62.47
50292;BME280;36190;54.980;73.388;2023-07-29T07:43:24;98952.44;;;25.79;62.44
50292;BME280;36190;54.980;73.388;2023-07-29T07:45:56;98955.38;;;25.69;62.90
50292;BME280;36190;54.980;73.388;2023-07-29T07:48:24;98950.81;;;25.78;62.88
50292;BME280;36190;54.980;73.388;2023-07-29T07:50:52;98952.06;;;26.23;62.34
50292;BME280;36190;54.980;73.388;2023-07-29T07:53:20;98968.06;;;26.53;61.23
50292;BME280;36190;54.980;73.388;2023-07-29T07:55:47;98965.38;;;26.39;61.40
50292;BME280;36190;54.980;73.388;2023-07-29T07:58:15;98976.25;;;26.16;62.05
50292;BME280;36190;54.980;73.388;2023-07-29T08:00:44;98963.94;;;25.90;62.42
50292;BME280;36190;54.980;73.388;2023-07-29T08:03:12;98965.06;;;25.75;63.00
50292;BME280;36190;54.980;73.388;2023-07-29T08:05:39;98967.13;;;25.56;63.43
50292;BME280;36190;54.980;73.388;2023-07-29T08:08:07;98971.16;;;25.72;63.43
50292;BME280;36190;54.980;73.388;2023-07-29T08:10:35;98978.38;;;26.05;62.15
50292;BME280;36190;54.980;73.388;2023-07-29T08:13:02;98979.59;;;26.27;61.74
50292;BME280;36190;54.980;73.388;2023-07-29T08:15:30;98969.19;;;26.52;60.69
50292;BME280;36190;54.980;73.388;2023-07-29T08:17:59;98981.59;;;27.03;59.61
50292;BME280;36190;54.980;73.388;2023-07-29T08:20:26;98978.53;;;27.37;58.69
50292;BME280;36190;54.980;73.388;2023-07-29T08:22:54;98981.75;;;27.30;58.36
50292;BME280;36190;54.980;73.388;2023-07-29T08:25:21;98983.78;;;26.93;59.33
50292;BME280;36190;54.980;73.388;2023-07-29T08:27:49;98971.47;;;26.58;60.15
50292;BME280;36190;54.980;73.388;2023-07-29T08:30:17;98977.16;;;26.25;60.73
50292;BME280;36190;54.980;73.388;2023-07-29T08:32:45;98986.50;;;26.10;61.72
50292;BME280;36190;54.980;73.388;2023-07-29T08:35:14;98997.66;;;26.00;61.91
50292;BME280;36190;54.980;73.388;2023-07-29T08:37:41;98994.13;;;25.85;62.64
50292;BME280;36190;54.980;73.388;2023-07-29T08:40:09;98986.91;;;25.89;62.68
50292;BME280;36190;54.980;73.388;2023-07-29T08:42:38;98988.91;;;26.12;61.64
50292;BME280;36190;54.980;73.388;2023-07-29T08:45:07;98991.84;;;26.52;60.93
50292;BME280;36190;54.980;73.388;2023-07-29T08:47:36;98990.75;;;26.76;59.98
50292;BME280;36190;54.980;73.388;2023-07-29T08:50:05;99000.34;;;27.10;59.31
50292;BME280;36190;54.980;73.388;2023-07-29T08:52:34;99011.88;;;27.30;59.11
50292;BME280;36190;54.980;73.388;2023-07-29T08:55:03;98998.94;;;27.22;58.86
50292;BME280;36190;54.980;73.388;2023-07-29T08:57:31;98989.03;;;27.03;58.79
50292;BME280;36190;54.980;73.388;2023-07-29T08:59:59;98997.34;;;27.29;58.47
50292;BME280;36190;54.980;73.388;2023-07-29T09:02:28;98995.13;;;27.63;57.63
50292;BME280;36190;54.980;73.388;2023-07-29T09:04:55;99008.75;;;28.04;56.33
50292;BME280;36190;54.980;73.388;2023-07-29T09:07:23;99003.00;;;28.32;55.26
50292;BME280;36190;54.980;73.388;2023-07-29T09:09:52;99007.53;;;28.45;54.70
50292;BME280;36190;54.980;73.388;2023-07-29T09:12:20;99000.59;;;28.65;54.27
50292;BME280;36190;54.980;73.388;2023-07-29T09:14:47;99009.63;;;28.92;53.53
50292;BME280;36190;54.980;73.388;2023-07-29T09:17:14;99014.63;;;28.64;54.13
50292;BME280;36190;54.980;73.388;2023-07-29T09:19:42;99006.03;;;28.12;55.27
50292;BME280;36190;54.980;73.388;2023-07-29T09:22:18;99005.91;;;27.59;56.62
50292;BME280;36190;54.980;73.388;2023-07-29T09:24:46;99018.91;;;27.54;56.38
50292;BME280;36190;54.980;73.388;2023-07-29T09:27:25;99014.69;;;27.88;55.06
50292;BME280;36190;54.980;73.388;2023-07-29T09:29:53;99020.13;;;28.28;54.20
50292;BME280;36190;54.980;73.388;2023-07-29T09:32:22;99026.59;;;28.50;53.40
50292;BME280;36190;54.980;73.388;2023-07-29T09:34:49;99018.19;;;28.47;53.52
50292;BME280;36190;54.980;73.388;2023-07-29T09:37:17;99025.94;;;28.62;53.41
50292;BME280;36190;54.980;73.388;2023-07-29T09:39:46;99013.66;;;28.95;52.64
50292;BME280;36190;54.980;73.388;2023-07-29T09:42:18;99021.59;;;29.53;51.77
50292;BME280;36190;54.980;73.388;2023-07-29T09:44:48;99015.38;;;29.74;50.87
50292;BME280;36190;54.980;73.388;2023-07-29T09:47:20;99011.63;;;29.40;51.39
50292;BME280;36190;54.980;73.388;2023-07-29T09:49:48;99013.03;;;28.98;52.54
50292;BME280;36190;54.980;73.388;2023-07-29T09:52:16;99029.81;;;28.70;52.94
50292;BME280;36190;54.980;73.388;2023-07-29T09:54:44;99014.09;;;28.18;53.85
50292;BME280;36190;54.980;73.388;2023-07-29T09:57:14;99025.47;;;27.76;55.08
50292;BME280;36190;54.980;73.388;2023-07-29T09:59:42;99022.31;;;27.28;56.18
50292;BME280;36190;54.980;73.388;2023-07-29T10:02:15;99011.91;;;27.07;56.75
50292;BME280;36190;54.980;73.388;2023-07-29T10:04:44;99033.09;;;27.56;56.01
50292;BME280;36190;54.980;73.388;2023-07-29T10:07:13;99038.19;;;28.30;54.05
50292;BME280;36190;54.980;73.388;2023-07-29T10:09:42;99025.63;;;28.99;52.79
50292;BME280;36190;54.980;73.388;2023-07-29T10:12:11;99024.59;;;29.69;51.22
50292;BME280;36190;54.980;73.388;2023-07-29T10:14:39;99031.38;;;30.32;49.79
50292;BME280;36190;54.980;73.388;2023-07-29T10:17:06;99025.72;;;30.07;49.71
50292;BME280;36190;54.980;73.388;2023-07-29T10:19:37;99037.50;;;29.21;51.16
50292;BME280;36190;54.980;73.388;2023-07-29T10:22:05;99031.22;;;28.23;53.33
50292;BME280;36190;54.980;73.388;2023-07-29T10:24:33;99044.41;;;27.31;54.98
50292;BME280;36190;54.980;73.388;2023-07-29T10:27:01;99026.75;;;26.69;56.59
50292;BME280;36190;54.980;73.388;2023-07-29T10:29:31;99020.63;;;26.72;56.80
50292;BME280;36190;54.980;73.388;2023-07-29T10:32:02;99028.41;;;27.25;56.41
50292;BME280;36190;54.980;73.388;2023-07-29T10:34:31;99019.72;;;28.04;54.32
50292;BME280;36190;54.980;73.388;2023-07-29T10:37:01;99021.84;;;29.13;51.79
50292;BME280;36190;54.980;73.388;2023-07-29T10:39:38;99038.59;;;30.15;49.26
50292;BME280;36190;54.980;73.388;2023-07-29T10:42:06;99029.34;;;30.63;47.09
50292;BME280;36190;54.980;73.388;2023-07-29T10:44:50;99013.28;;;30.86;46.18
50292;BME280;36190;54.980;73.388;2023-07-29T10:47:19;99031.75;;;31.19;45.32
50292;BME280;36190;54.980;73.388;2023-07-29T10:49:48;99027.78;;;31.29;44.73
50292;BME280;36190;54.980;73.388;2023-07-29T10:52:31;99012.78;;;31.76;44.12
50292;BME280;36190;54.980;73.388;2023-07-29T10:55:00;99012.13;;;32.45;43.33
50292;BME280;36190;54.980;73.388;2023-07-29T10:57:31;99011.31;;;33.02;41.76
50292;BME280;36190;54.980;73.388;2023-07-29T10:59:59;99015.91;;;33.58;41.50
50292;BME280;36190;54.980;73.388;2023-07-29T11:02:30;99011.09;;;34.23;40.22
50292;BME280;36190;54.980;73.388;2023-07-29T11:04:59;99017.81;;;34.81;39.72
50292;BME280;36190;54.980;73.388;2023-07-29T11:07:32;99017.13;;;35.31;39.84
50292;BME280;36190;54.980;73.388;2023-07-29T11:10:12;99007.59;;;35.29;38.93
50292;BME280;36190;54.980;73.388;2023-07-29T11:12:44;99020.94;;;35.23;38.47
50292;BME280;36190;54.980;73.388;2023-07-29T11:15:21;99018.22;;;34.44;39.11
50292;BME280;36190;54.980;73.388;2023-07-29T11:17:51;99012.03;;;33.95;39.76
50292;BME280;36190;54.980;73.388;2023-07-29T11:20:21;99017.94;;;33.94;39.25
50292;BME280;36190;54.980;73.388;2023-07-29T11:22:50;99022.00;;;34.16;38.56
50292;BME280;36190;54.980;73.388;2023-07-29T11:25:18;99016.94;;;34.38;38.21
50292;BME280;36190;54.980;73.388;2023-07-29T11:27:46;99034.94;;;34.87;37.47
50292;BME280;36190;54.980;73.388;2023-07-29T11:30:15;99016.75;;;35.09;36.99
50292;BME280;36190;54.980;73.388;2023-07-29T11:32:43;99021.50;;;35.32;37.19
50292;BME280;36190;54.980;73.388;2023-07-29T11:35:13;99022.22;;;36.03;36.36
50292;BME280;36190;54.980;73.388;2023-07-29T11:37:44;99035.28;;;36.29;35.73
50292;BME280;36190;54.980;73.388;2023-07-29T11:40:15;99030.09;;;36.01;35.46
50292;BME280;36190;54.980;73.388;2023-07-29T11:42:43;99041.22;;;35.50;35.98
50292;BME280;36190;54.980;73.388;2023-07-29T11:45:11;99046.69;;;34.80;37.03
50292;BME280;36190;54.980;73.388;2023-07-29T11:47:38;99056.91;;;33.40;38.86
50292;BME280;36190;54.980;73.388;2023-07-29T11:50:07;99057.59;;;31.98;41.13
50292;BME280;36190;54.980;73.388;2023-07-29T11:52:39;99054.31;;;31.00;43.04
50292;BME280;36190;54.980;73.388;2023-07-29T11:55:07;99054.16;;;30.32;44.32
50292;BME280;36190;54.980;73.388;2023-07-29T11:57:38;99051.44;;;30.02;45.31
50292;BME280;36190;54.980;73.388;2023-07-29T12:00:06;99056.13;;;29.72;45.82
50292;BME280;36190;54.980;73.388;2023-07-29T12:02:37;99055.25;;;29.32;46.67
50292;BME280;36190;54.980;73.388;2023-07-29T12:05:06;99067.75;;;29.12;47.59
50292;BME280;36190;54.980;73.388;2023-07-29T12:07:34;99066.06;;;29.37;47.44
50292;BME280;36190;54.980;73.388;2023-07-29T12:10:02;99055.59;;;30.60;45.20
50292;BME280;36190;54.980;73.388;2023-07-29T12:12:29;99060.38;;;31.86;42.70
50292;BME280;36190;54.980;73.388;2023-07-29T12:14:59;99051.06;;;32.56;41.15
50292;BME280;36190;54.980;73.388;2023-07-29T12:17:26;99045.88;;;32.96;40.66
50292;BME280;36190;54.980;73.388;2023-07-29T12:19:54;99052.66;;;33.59;39.32
50292;BME280;36190;54.980;73.388;2023-07-29T12:22:22;99034.44;;;33.90;38.88
50292;BME280;36190;54.980;73.388;2023-07-29T12:24:51;99020.09;;;33.68;38.87
50292;BME280;36190;54.980;73.388;2023-07-29T12:27:21;99018.84;;;33.82;38.67
50292;BME280;36190;54.980;73.388;2023-07-29T12:29:51;99030.34;;;33.84;38.97
50292;BME280;36190;54.980;73.388;2023-07-29T12:32:20;99034.19;;;33.63;39.04
50292;BME280;36190;54.980;73.388;2023-07-29T12:34:53;99028.69;;;33.99;38.49
50292;BME280;36190;54.980;73.388;2023-07-29T12:37:31;99020.91;;;33.69;38.65
50292;BME280;36190;54.980;73.388;2023-07-29T12:39:59;99024.78;;;32.75;40.08
50292;BME280;36190;54.980;73.388;2023-07-29T12:42:26;99029.22;;;31.85;41.61
50292;BME280;36190;54.980;73.388;2023-07-29T12:44:54;99028.75;;;30.78;43.59
50292;BME280;36190;54.980;73.388;2023-07-29T12:47:22;99030.41;;;29.68;45.69
50292;BME280;36190;54.980;73.388;2023-07-29T12:49:50;99036.91;;;28.89;47.44
50292;BME280;36190;54.980;73.388;2023-07-29T12:52:18;99037.56;;;28.33;48.53
50292;BME280;36190;54.980;73.388;2023-07-29T12:54:45;99038.81;;;28.26;48.39
50292;BME280;36190;54.980;73.388;2023-07-29T12:57:13;99043.09;;;29.42;46.74